sensor_id;sensor_type;location;lat;lon;timestamp;pressure;altitude;pressure_sealevel;temperature;humidity
8229;BME280;4155;50.118;8.714;2022-09-03T00:00:33;99779.38;;;17.08;49.90
8229;BME280;4155;50.118;8.714;2022-09-03T00:03:07;99776.22;;;16.99;50.37
8229;BME280;4155;50.118;8.714;2022-09-03T00:05:42;99767.28;;;16.99;50.53
8229;BME280;4155;50.118;8.714;2022-09-03T00:08:14;99771.47;;;17.06;50.15
8229;BME280;4155;50.118;8.714;2022-09-03T00:10:50;99771.00;;;16.93;50.67
8229;BME280;4155;50.118;8.714;2022-09-03T00:13:23;99772.38;;;16.95;50.30
8229;BME280;4155;50.118;8.714;2022-09-03T00:15:54;99771.81;;;16.93;50.63
8229;BME280;4155;50.118;8.714;2022-09-03T00:18:30;99767.34;;;16.87;50.84
8229;BME280;4155;50.118;8.714;2022-09-03T00:21:03;99766.72;;;16.97;50.68
8229;BME280;4155;50.118;8.714;2022-09-03T00:23:36;99762.38;;;16.96;50.72
8229;BME280;4155;50.118;8.714;2022-09-03T00:26:15;99765.97;;;16.85;50.65
8229;BME280;4155;50.118;8.714;2022-09-03T00:28:46;99769.91;;;16.94;50.80
8229;BME280;4155;50.118;8.714;2022-09-03T00:31:19;99762.94;;;16.98;51.06
8229;BME280;4155;50.118;8.714;2022-09-03T00:33:59;99766.53;;;16.87;51.38
8229;BME280;4155;50.118;8.714;2022-09-03T00:36:33;99760.63;;;16.90;51.04
8229;BME280;4155;50.118;8.714;2022-09-03T00:39:02;99763.81;;;16.87;51.10
8229;BME280;4155;50.118;8.714;2022-09-03T00:41:35;99763.81;;;16.87;51.15
8229;BME280;4155;50.118;8.714;2022-09-03T00:44:21;99764.56;;;16.99;50.76
8229;BME280;4155;50.118;8.714;2022-09-03T00:46:56;99776.28;;;16.88;51.37
8229;BME280;4155;50.118;8.714;2022-09-03T00:49:34;99771.38;;;16.85;51.28
8229;BME280;4155;50.118;8.714;2022-09-03T00:52:10;99769.81;;;16.89;51.58
8229;BME280;4155;50.118;8.714;2022-09-03T00:54:45;99768.66;;;16.85;51.29
8229;BME280;4155;50.118;8.714;2022-09-03T00:57:33;99776.69;;;16.80;51.44
8229;BME280;4155;50.118;8.714;2022-09-03T01:00:06;99765.44;;;16.71;51.67
8229;BME280;4155;50.118;8.714;2022-09-03T01:02:46;99762.13;;;16.69;52.05
8229;BME280;4155;50.118;8.714;2022-09-03T01:05:27;99763.31;;;16.73;51.89
8229;BME280;4155;50.118;8.714;2022-09-03T01:08:06;99770.47;;;16.67;52.14
8229;BME280;4155;50.118;8.714;2022-09-03T01:10:47;99774.41;;;16.71;52.19
8229;BME280;4155;50.118;8.714;2022-09-03T01:13:21;99768.63;;;16.68;52.42
8229;BME280;4155;50.118;8.714;2022-09-03T01:16:02;99769.66;;;16.67;52.19
8229;BME280;4155;50.118;8.714;2022-09-03T01:18:38;99770.41;;;16.62;52.53
8229;BME280;4155;50.118;8.714;2022-09-03T01:21:25;99770.94;;;16.76;51.90
8229;BME280;4155;50.118;8.714;2022-09-03T01:26:58;99779.56;;;16.73;52.45
8229;BME280;4155;50.118;8.714;2022-09-03T01:29:37;99769.25;;;16.87;51.85
8229;BME280;4155;50.118;8.714;2022-09-03T01:32:12;99775.22;;;16.72;52.69
8229;BME280;4155;50.118;8.714;2022-09-03T01:34:49;99774.41;;;16.71;51.93
8229;BME280;4155;50.118;8.714;2022-09-03T01:37:29;99776.03;;;16.72;52.25
8229;BME280;4155;50.118;8.714;2022-09-03T01:40:06;99767.34;;;16.87;51.90
8229;BME280;4155;50.118;8.714;2022-09-03T01:42:55;99772.28;;;16.90;52.02
8229;BME280;4155;50.118;8.714;2022-09-03T01:45:36;99778.44;;;16.86;51.76
8229;BME280;4155;50.118;8.714;2022-09-03T01:48:29;99776.69;;;16.80;52.38
8229;BME280;4155;50.118;8.714;2022-09-03T01:51:05;99767.03;;;16.84;52.09
8229;BME280;4155;50.118;8.714;2022-09-03T01:53:53;99767.34;;;16.70;52.63
8229;BME280;4155;50.118;8.714;2022-09-03T01:56:32;99756.91;;;16.79;52.32
8229;BME280;4155;50.118;8.714;2022-09-03T01:59:08;99763.31;;;16.73;52.09
8229;BME280;4155;50.118;8.714;2022-09-03T02:01:43;99761.03;;;16.82;52.17
8229;BME280;4155;50.118;8.714;2022-09-03T02:04:16;99752.75;;;16.88;52.14
8229;BME280;4155;50.118;8.714;2022-09-03T02:06:46;99753.00;;;16.87;52.14
8229;BME280;4155;50.118;8.714;2022-09-03T02:09:16;99750.13;;;16.93;52.22
8229;BME280;4155;50.118;8.714;2022-09-03T02:11:48;99757.19;;;16.94;51.93
8229;BME280;4155;50.118;8.714;2022-09-03T02:14:17;99770.63;;;16.89;52.03
8229;BME280;4155;50.118;8.714;2022-09-03T02:16:46;99773.78;;;16.98;51.92
8229;BME280;4155;50.118;8.714;2022-09-03T02:19:15;99769.59;;;17.07;51.89
8229;BME280;4155;50.118;8.714;2022-09-03T02:21:46;99774.44;;;17.05;51.75
8229;BME280;4155;50.118;8.714;2022-09-03T02:24:16;99777.03;;;17.00;52.21
8229;BME280;4155;50.118;8.714;2022-09-03T02:26:44;99777.03;;;17.00;52.05
8229;BME280;4155;50.118;8.714;2022-09-03T02:29:13;99775.44;;;17.16;51.59
8229;BME280;4155;50.118;8.714;2022-09-03T02:31:42;99782.00;;;17.03;51.99
8229;BME280;4155;50.118;8.714;2022-09-03T02:34:12;99774.19;;;17.06;51.96
8229;BME280;4155;50.118;8.714;2022-09-03T02:36:41;99786.59;;;17.19;51.77
8229;BME280;4155;50.118;8.714;2022-09-03T02:39:11;99775.25;;;17.22;51.63
8229;BME280;4155;50.118;8.714;2022-09-03T02:41:39;99781.03;;;17.26;51.73
8229;BME280;4155;50.118;8.714;2022-09-03T02:44:11;99781.34;;;17.29;51.57
8229;BME280;4155;50.118;8.714;2022-09-03T02:46:43;99779.94;;;17.27;51.48
8229;BME280;4155;50.118;8.714;2022-09-03T02:49:12;99783.06;;;17.19;52.12
8229;BME280;4155;50.118;8.714;2022-09-03T02:51:42;99782.41;;;17.28;51.67
8229;BME280;4155;50.118;8.714;2022-09-03T02:54:11;99778.88;;;17.28;51.66
8229;BME280;4155;50.118;8.714;2022-09-03T02:56:44;99780.22;;;17.25;51.81
8229;BME280;4155;50.118;8.714;2022-09-03T02:59:13;99777.97;;;17.22;51.96
8229;BME280;4155;50.118;8.714;2022-09-03T03:01:43;99779.78;;;17.17;51.83
8229;BME280;4155;50.118;8.714;2022-09-03T03:04:13;99783.06;;;17.19;51.81
8229;BME280;4155;50.118;8.714;2022-09-03T03:06:41;99782.19;;;17.13;52.32
8229;BME280;4155;50.118;8.714;2022-09-03T03:09:13;99781.94;;;17.15;52.19
8229;BME280;4155;50.118;8.714;2022-09-03T03:11:41;99782.38;;;17.12;52.54
8229;BME280;4155;50.118;8.714;2022-09-03T03:14:09;99777.91;;;17.17;52.22
8229;BME280;4155;50.118;8.714;2022-09-03T03:16:37;99775.69;;;17.14;52.33
8229;BME280;4155;50.118;8.714;2022-09-03T03:19:04;99784.78;;;17.08;52.34
8229;BME280;4155;50.118;8.714;2022-09-03T03:21:33;99774.75;;;17.09;52.47
8229;BME280;4155;50.118;8.714;2022-09-03T03:24:02;99770.81;;;16.99;52.72
8229;BME280;4155;50.118;8.714;2022-09-03T03:26:31;99776.22;;;16.99;53.10
8229;BME280;4155;50.118;8.714;2022-09-03T03:29:00;99768.91;;;17.00;53.17
8229;BME280;4155;50.118;8.714;2022-09-03T03:31:30;99768.91;;;17.00;53.27
8229;BME280;4155;50.118;8.714;2022-09-03T03:34:00;99769.34;;;16.92;53.54
8229;BME280;4155;50.118;8.714;2022-09-03T03:36:30;99773.88;;;17.03;53.35
8229;BME280;4155;50.118;8.714;2022-09-03T03:39:00;99768.34;;;16.98;53.44
8229;BME280;4155;50.118;8.714;2022-09-03T03:41:30;99768.03;;;16.94;53.62
8229;BME280;4155;50.118;8.714;2022-09-03T03:44:00;99766.84;;;16.90;53.55
8229;BME280;4155;50.118;8.714;2022-09-03T03:46:29;99767.72;;;16.91;53.54
8229;BME280;4155;50.118;8.714;2022-09-03T03:48:58;99766.03;;;16.90;53.73
8229;BME280;4155;50.118;8.714;2022-09-03T03:51:26;99773.19;;;16.96;53.69
8229;BME280;4155;50.118;8.714;2022-09-03T03:53:56;99772.88;;;16.92;53.66
8229;BME280;4155;50.118;8.714;2022-09-03T03:56:29;99773.94;;;16.91;54.26
8229;BME280;4155;50.118;8.714;2022-09-03T03:58:58;99769.81;;;16.89;54.03
8229;BME280;4155;50.118;8.714;2022-09-03T04:01:27;99769.03;;;17.05;53.86
8229;BME280;4155;50.118;8.714;2022-09-03T04:03:56;99769.75;;;17.00;53.93
8229;BME280;4155;50.118;8.714;2022-09-03T04:06:25;99767.34;;;16.87;53.69
8229;BME280;4155;50.118;8.714;2022-09-03T04:08:53;99768.03;;;16.94;53.99
8229;BME280;4155;50.118;8.714;2022-09-03T04:11:22;99769.84;;;17.05;53.79
8229;BME280;4155;50.118;8.714;2022-09-03T04:13:52;99762.59;;;17.11;54.16
8229;BME280;4155;50.118;8.714;2022-09-03T04:16:21;99753.41;;;16.95;54.13
8229;BME280;4155;50.118;8.714;2022-09-03T04:18:50;99757.50;;;16.98;53.82
8229;BME280;4155;50.118;8.714;2022-09-03T04:21:19;99762.03;;;17.09;53.88
8229;BME280;4155;50.118;8.714;2022-09-03T04:23:49;99754.91;;;17.03;53.76
8229;BME280;4155;50.118;8.714;2022-09-03T04:26:20;99762.38;;;16.96;54.03
8229;BME280;4155;50.118;8.714;2022-09-03T04:28:52;99765.47;;;16.88;54.35
8229;BME280;4155;50.118;8.714;2022-09-03T04:31:20;99759.16;;;16.82;54.34
8229;BME280;4155;50.118;8.714;2022-09-03T04:33:47;99752.66;;;16.83;54.73
8229;BME280;4155;50.118;8.714;2022-09-03T04:36:16;99773.19;;;16.96;54.16
8229;BME280;4155;50.118;8.714;2022-09-03T04:38:45;99772.88;;;16.92;54.22
8229;BME280;4155;50.118;8.714;2022-09-03T04:41:15;99769.09;;;16.93;54.40
8229;BME280;4155;50.118;8.714;2022-09-03T04:43:43;99774.09;;;16.85;54.48
8229;BME280;4155;50.118;8.714;2022-09-03T04:46:19;99772.06;;;16.92;54.54
8229;BME280;4155;50.118;8.714;2022-09-03T04:48:48;99765.84;;;16.80;55.02
8229;BME280;4155;50.118;8.714;2022-09-03T04:51:18;99770.22;;;16.81;55.31
8229;BME280;4155;50.118;8.714;2022-09-03T04:53:47;99762.56;;;16.77;55.32
8229;BME280;4155;50.118;8.714;2022-09-03T04:56:21;99763.75;;;16.82;55.20
8229;BME280;4155;50.118;8.714;2022-09-03T04:58:53;99769.50;;;16.85;55.44
8229;BME280;4155;50.118;8.714;2022-09-03T05:01:24;99772.19;;;16.85;55.49
8229;BME280;4155;50.118;8.714;2022-09-03T05:03:53;99769.34;;;16.92;54.97
8229;BME280;4155;50.118;8.714;2022-09-03T05:06:21;99770.56;;;17.01;54.67
8229;BME280;4155;50.118;8.714;2022-09-03T05:08:51;99767.84;;;17.01;55.05
8229;BME280;4155;50.118;8.714;2022-09-03T05:11:19;99768.03;;;17.11;54.72
8229;BME280;4155;50.118;8.714;2022-09-03T05:13:47;99781.56;;;17.11;54.82
8229;BME280;4155;50.118;8.714;2022-09-03T05:16:16;99776.50;;;17.15;54.75
8229;BME280;4155;50.118;8.714;2022-09-03T05:18:46;99767.97;;;17.23;54.10
8229;BME280;4155;50.118;8.714;2022-09-03T05:21:15;99771.91;;;17.15;54.48
8229;BME280;4155;50.118;8.714;2022-09-03T05:23:45;99773.03;;;17.19;54.59
8229;BME280;4155;50.118;8.714;2022-09-03T05:26:15;99776.16;;;17.11;54.85
8229;BME280;4155;50.118;8.714;2022-09-03T05:28:44;99778.03;;;17.11;54.50
8229;BME280;4155;50.118;8.714;2022-09-03T05:31:13;99783.38;;;17.05;54.96
8229;BME280;4155;50.118;8.714;2022-09-03T05:33:43;99783.72;;;17.09;54.83
8229;BME280;4155;50.118;8.714;2022-09-03T05:36:14;99790.06;;;17.15;55.04
8229;BME280;4155;50.118;8.714;2022-09-03T05:38:42;99782.19;;;17.13;54.92
8229;BME280;4155;50.118;8.714;2022-09-03T05:41:11;99787.09;;;17.16;55.13
8229;BME280;4155;50.118;8.714;2022-09-03T05:43:40;99795.22;;;17.16;55.03
8229;BME280;4155;50.118;8.714;2022-09-03T05:46:09;99796.88;;;17.17;55.20
8229;BME280;4155;50.118;8.714;2022-09-03T05:48:38;99800.41;;;17.18;55.45
8229;BME280;4155;50.118;8.714;2022-09-03T05:51:08;99797.84;;;17.11;55.74
8229;BME280;4155;50.118;8.714;2022-09-03T05:53:38;99806.00;;;17.28;55.47
8229;BME280;4155;50.118;8.714;2022-09-03T05:56:08;99813.28;;;17.27;55.44
8229;BME280;4155;50.118;8.714;2022-09-03T05:58:39;99808.94;;;17.43;55.27
8229;BME280;4155;50.118;8.714;2022-09-03T06:01:10;99806.97;;;17.39;55.19
8229;BME280;4155;50.118;8.714;2022-09-03T06:03:38;99805.81;;;17.68;54.94
8229;BME280;4155;50.118;8.714;2022-09-03T06:06:06;99804.34;;;17.60;55.13
8229;BME280;4155;50.118;8.714;2022-09-03T06:08:35;99814.63;;;17.58;54.88
8229;BME280;4155;50.118;8.714;2022-09-03T06:11:05;99812.41;;;17.39;55.76
8229;BME280;4155;50.118;8.714;2022-09-03T06:13:34;99814.88;;;17.23;56.08
8229;BME280;4155;50.118;8.714;2022-09-03T06:16:03;99821.09;;;17.41;56.12
8229;BME280;4155;50.118;8.714;2022-09-03T06:18:31;99818.78;;;17.32;56.43
8229;BME280;4155;50.118;8.714;2022-09-03T06:21:01;99816.50;;;17.24;56.22
8229;BME280;4155;50.118;8.714;2022-09-03T06:23:30;99831.59;;;17.20;56.79
8229;BME280;4155;50.118;8.714;2022-09-03T06:26:00;99832.16;;;17.22;56.89
8229;BME280;4155;50.118;8.714;2022-09-03T06:28:33;99830.06;;;17.24;56.60
8229;BME280;4155;50.118;8.714;2022-09-03T06:31:02;99827.03;;;17.38;56.58
8229;BME280;4155;50.118;8.714;2022-09-03T06:33:32;99824.38;;;17.26;56.81
8229;BME280;4155;50.118;8.714;2022-09-03T06:36:02;99825.03;;;17.33;56.62
8229;BME280;4155;50.118;8.714;2022-09-03T06:38:35;99831.28;;;17.50;56.47
8229;BME280;4155;50.118;8.714;2022-09-03T06:41:05;99835.25;;;17.59;56.16
8229;BME280;4155;50.118;8.714;2022-09-03T06:43:35;99836.47;;;17.69;56.69
8229;BME280;4155;50.118;8.714;2022-09-03T06:46:05;99837.06;;;17.71;56.24
8229;BME280;4155;50.118;8.714;2022-09-03T06:48:35;99846.34;;;17.75;55.94
8229;BME280;4155;50.118;8.714;2022-09-03T06:51:06;99829.34;;;17.46;56.43
8229;BME280;4155;50.118;8.714;2022-09-03T06:53:35;99830.94;;;17.63;56.60
8229;BME280;4155;50.118;8.714;2022-09-03T06:56:05;99833.84;;;17.57;56.60
8229;BME280;4155;50.118;8.714;2022-09-03T06:58:36;99832.28;;;17.44;57.06
8229;BME280;4155;50.118;8.714;2022-09-03T07:01:08;99835.25;;;17.59;56.83
8229;BME280;4155;50.118;8.714;2022-09-03T07:03:37;99839.59;;;17.60;57.04
8229;BME280;4155;50.118;8.714;2022-09-03T07:06:08;99846.66;;;17.61;57.23
8229;BME280;4155;50.118;8.714;2022-09-03T07:08:37;99846.31;;;17.41;58.70
8229;BME280;4155;50.118;8.714;2022-09-03T07:11:06;99846.06;;;17.43;59.07
8229;BME280;4155;50.118;8.714;2022-09-03T07:13:37;99852.75;;;17.35;59.70
8229;BME280;4155;50.118;8.714;2022-09-03T07:16:08;99854.81;;;17.45;60.66
8229;BME280;4155;50.118;8.714;2022-09-03T07:18:38;99848.75;;;17.09;60.37
8229;BME280;4155;50.118;8.714;2022-09-03T07:21:08;99854.66;;;17.06;61.05
8229;BME280;4155;50.118;8.714;2022-09-03T07:23:37;99852.75;;;17.06;61.37
8229;BME280;4155;50.118;8.714;2022-09-03T07:26:08;99854.59;;;17.18;61.32
8229;BME280;4155;50.118;8.714;2022-09-03T07:28:40;99865.63;;;16.99;60.78
8229;BME280;4155;50.118;8.714;2022-09-03T07:31:10;99867.88;;;17.02;61.29
8229;BME280;4155;50.118;8.714;2022-09-03T07:33:38;99876.97;;;17.42;61.46
8229;BME280;4155;50.118;8.714;2022-09-03T07:36:08;99871.72;;;17.06;62.09
8229;BME280;4155;50.118;8.714;2022-09-03T07:38:36;99870.09;;;16.65;62.73
8229;BME280;4155;50.118;8.714;2022-09-03T07:41:06;99869.91;;;16.95;63.65
8229;BME280;4155;50.118;8.714;2022-09-03T07:43:45;99878.06;;;16.84;63.99
8229;BME280;4155;50.118;8.714;2022-09-03T07:46:15;99877.25;;;16.83;64.02
8229;BME280;4155;50.118;8.714;2022-09-03T07:48:46;99883.09;;;17.20;63.30
8229;BME280;4155;50.118;8.714;2022-09-03T07:51:16;99881.13;;;16.87;64.43
8229;BME280;4155;50.118;8.714;2022-09-03T07:53:44;99877.72;;;17.09;64.30
8229;BME280;4155;50.118;8.714;2022-09-03T07:56:13;99877.78;;;16.97;64.84
8229;BME280;4155;50.118;8.714;2022-09-03T07:58:41;99875.44;;;16.89;64.96
8229;BME280;4155;50.118;8.714;2022-09-03T08:01:12;99886.03;;;17.02;64.74
8229;BME280;4155;50.118;8.714;2022-09-03T08:03:42;99885.31;;;16.95;65.39
8229;BME280;4155;50.118;8.714;2022-09-03T08:06:10;99885.88;;;16.80;65.03
8229;BME280;4155;50.118;8.714;2022-09-03T08:08:38;99899.16;;;16.82;65.46
8229;BME280;4155;50.118;8.714;2022-09-03T08:11:07;99899.28;;;16.75;65.62
8229;BME280;4155;50.118;8.714;2022-09-03T08:13:37;99893.00;;;16.86;65.56
8229;BME280;4155;50.118;8.714;2022-09-03T08:16:07;99904.53;;;17.22;65.21
8229;BME280;4155;50.118;8.714;2022-09-03T08:18:37;99905.88;;;17.53;64.50
8229;BME280;4155;50.118;8.714;2022-09-03T08:21:06;99905.94;;;16.96;66.39
8229;BME280;4155;50.118;8.714;2022-09-03T08:23:36;99896.31;;;17.17;66.28
8229;BME280;4155;50.118;8.714;2022-09-03T08:26:04;99895.66;;;16.69;67.03
8229;BME280;4155;50.118;8.714;2022-09-03T08:28:33;99896.03;;;17.01;68.00
8229;BME280;4155;50.118;8.714;2022-09-03T08:31:05;99900.78;;;17.23;67.69
8229;BME280;4155;50.118;8.714;2022-09-03T08:33:38;99893.97;;;17.09;67.64
8229;BME280;4155;50.118;8.714;2022-09-03T08:36:10;99900.50;;;16.96;69.02
8229;BME280;4155;50.118;8.714;2022-09-03T08:38:39;99897.56;;;17.26;68.68
8229;BME280;4155;50.118;8.714;2022-09-03T08:41:11;99898.00;;;17.34;68.82
8229;BME280;4155;50.118;8.714;2022-09-03T08:44:04;99887.41;;;17.04;70.28
8229;BME280;4155;50.118;8.714;2022-09-03T08:46:47;99887.41;;;16.64;73.23
8229;BME280;4155;50.118;8.714;2022-09-03T08:49:23;99892.53;;;17.18;72.30
8229;BME280;4155;50.118;8.714;2022-09-03T08:51:54;99902.00;;;17.32;72.70
8229;BME280;4155;50.118;8.714;2022-09-03T08:54:24;99903.44;;;17.51;72.46
8229;BME280;4155;50.118;8.714;2022-09-03T08:56:54;99903.47;;;17.68;72.84
8229;BME280;4155;50.118;8.714;2022-09-03T08:59:26;99899.78;;;17.29;73.13
8229;BME280;4155;50.118;8.714;2022-09-03T09:02:03;99915.91;;;17.81;73.05
8229;BME280;4155;50.118;8.714;2022-09-03T09:04:47;99909.91;;;17.79;69.37
8229;BME280;4155;50.118;8.714;2022-09-03T09:07:23;99915.72;;;18.04;69.28
8229;BME280;4155;50.118;8.714;2022-09-03T09:10:00;99918.91;;;18.95;68.10
8229;BME280;4155;50.118;8.714;2022-09-03T09:12:36;99913.19;;;18.97;66.46
8229;BME280;4155;50.118;8.714;2022-09-03T09:15:18;99901.78;;;19.22;64.49
8229;BME280;4155;50.118;8.714;2022-09-03T09:18:03;99896.97;;;19.29;65.65
8229;BME280;4155;50.118;8.714;2022-09-03T09:20:39;99903.16;;;19.24;65.43
8229;BME280;4155;50.118;8.714;2022-09-03T09:23:14;99897.16;;;19.49;63.48
8229;BME280;4155;50.118;8.714;2022-09-03T09:25:47;99902.38;;;19.83;63.09
8229;BME280;4155;50.118;8.714;2022-09-03T09:28:20;99911.25;;;20.05;63.02
8229;BME280;4155;50.118;8.714;2022-09-03T09:30:50;99918.81;;;20.93;61.00
8229;BME280;4155;50.118;8.714;2022-09-03T09:33:19;99907.03;;;20.77;61.07
8229;BME280;4155;50.118;8.714;2022-09-03T09:35:48;99910.34;;;20.89;59.96
8229;BME280;4155;50.118;8.714;2022-09-03T09:38:26;99887.06;;;20.56;58.88
8229;BME280;4155;50.118;8.714;2022-09-03T09:40:54;99890.47;;;19.57;61.00
8229;BME280;4155;50.118;8.714;2022-09-03T09:43:25;99887.59;;;19.74;62.55
8229;BME280;4155;50.118;8.714;2022-09-03T09:45:52;99899.41;;;20.27;60.07
8229;BME280;4155;50.118;8.714;2022-09-03T09:48:23;99896.59;;;20.54;58.35
8229;BME280;4155;50.118;8.714;2022-09-03T09:51:06;99893.09;;;20.63;58.57
8229;BME280;4155;50.118;8.714;2022-09-03T09:53:35;99897.06;;;21.08;57.92
8229;BME280;4155;50.118;8.714;2022-09-03T09:56:04;99889.19;;;20.44;58.50
8229;BME280;4155;50.118;8.714;2022-09-03T09:58:33;99887.75;;;20.41;59.16
8229;BME280;4155;50.118;8.714;2022-09-03T10:01:03;99886.53;;;20.12;60.20
8229;BME280;4155;50.118;8.714;2022-09-03T10:03:46;99881.47;;;19.88;60.88
8229;BME280;4155;50.118;8.714;2022-09-03T10:06:16;99883.59;;;19.54;62.60
8229;BME280;4155;50.118;8.714;2022-09-03T10:09:06;99893.66;;;19.54;62.35
8229;BME280;4155;50.118;8.714;2022-09-03T10:11:34;99888.78;;;19.88;61.41
8229;BME280;4155;50.118;8.714;2022-09-03T10:14:10;99894.47;;;19.81;61.61
8229;BME280;4155;50.118;8.714;2022-09-03T10:16:41;99896.47;;;19.96;60.42
8229;BME280;4155;50.118;8.714;2022-09-03T10:19:16;99890.75;;;19.98;61.26
8229;BME280;4155;50.118;8.714;2022-09-03T10:21:52;99888.09;;;20.03;62.43
8229;BME280;4155;50.118;8.714;2022-09-03T10:24:32;99877.53;;;20.11;61.75
8229;BME280;4155;50.118;8.714;2022-09-03T10:27:06;99873.81;;;19.85;61.80
8229;BME280;4155;50.118;8.714;2022-09-03T10:29:39;99888.56;;;19.94;61.13
8229;BME280;4155;50.118;8.714;2022-09-03T10:32:16;99882.03;;;19.96;61.43
8229;BME280;4155;50.118;8.714;2022-09-03T10:34:53;99880.47;;;20.52;59.63
8229;BME280;4155;50.118;8.714;2022-09-03T10:37:33;99882.13;;;21.26;58.32
8229;BME280;4155;50.118;8.714;2022-09-03T10:40:10;99874.78;;;21.82;56.59
8229;BME280;4155;50.118;8.714;2022-09-03T10:42:47;99882.41;;;22.26;55.00
8229;BME280;4155;50.118;8.714;2022-09-03T10:45:22;99878.75;;;22.56;54.96
8229;BME280;4155;50.118;8.714;2022-09-03T10:51:11;99877.63;;;22.62;54.76
8229;BME280;4155;50.118;8.714;2022-09-03T10:53:56;99868.03;;;22.65;53.65
8229;BME280;4155;50.118;8.714;2022-09-03T10:56:31;99864.34;;;22.30;55.63
8229;BME280;4155;50.118;8.714;2022-09-03T10:59:09;99870.44;;;22.81;54.84
8229;BME280;4155;50.118;8.714;2022-09-03T11:01:49;99870.66;;;23.00;53.61
8229;BME280;4155;50.118;8.714;2022-09-03T11:04:27;99874.63;;;23.57;52.88
8229;BME280;4155;50.118;8.714;2022-09-03T11:07:04;99866.59;;;23.71;51.13
8229;BME280;4155;50.118;8.714;2022-09-03T11:09:38;99858.16;;;23.97;50.71
8229;BME280;4155;50.118;8.714;2022-09-03T11:12:17;99850.59;;;24.12;49.82
8229;BME280;4155;50.118;8.714;2022-09-03T11:14:50;99846.38;;;22.84;54.12
8229;BME280;4155;50.118;8.714;2022-09-03T11:17:22;99848.50;;;23.36;51.52
8229;BME280;4155;50.118;8.714;2022-09-03T11:19:55;99850.53;;;23.59;51.32
8229;BME280;4155;50.118;8.714;2022-09-03T11:22:24;99847.28;;;23.18;53.08
8229;BME280;4155;50.118;8.714;2022-09-03T11:24:58;99843.91;;;22.87;53.57
8229;BME280;4155;50.118;8.714;2022-09-03T11:27:36;99841.56;;;22.60;54.83
8229;BME280;4155;50.118;8.714;2022-09-03T11:30:13;99844.75;;;23.27;53.97
8229;BME280;4155;50.118;8.714;2022-09-03T11:32:51;99833.09;;;23.11;53.04
8229;BME280;4155;50.118;8.714;2022-09-03T11:35:26;99825.56;;;23.95;51.54
8229;BME280;4155;50.118;8.714;2022-09-03T11:37:58;99828.09;;;24.82;48.04
8229;BME280;4155;50.118;8.714;2022-09-03T11:40:33;99822.44;;;23.78;50.55
8229;BME280;4155;50.118;8.714;2022-09-03T11:43:06;99815.63;;;24.04;49.51
8229;BME280;4155;50.118;8.714;2022-09-03T11:45:36;99816.31;;;24.15;50.09
8229;BME280;4155;50.118;8.714;2022-09-03T11:48:18;99811.06;;;24.42;48.95
8229;BME280;4155;50.118;8.714;2022-09-03T11:50:55;99812.19;;;23.25;52.01
8229;BME280;4155;50.118;8.714;2022-09-03T11:53:25;99807.81;;;24.16;51.09
8229;BME280;4155;50.118;8.714;2022-09-03T11:55:58;99806.91;;;24.69;50.16
8229;BME280;4155;50.118;8.714;2022-09-03T11:58:29;99806.84;;;22.61;53.06
8229;BME280;4155;50.118;8.714;2022-09-03T12:00:59;99800.13;;;22.92;52.37
8229;BME280;4155;50.118;8.714;2022-09-03T12:03:37;99798.13;;;23.42;51.47
8229;BME280;4155;50.118;8.714;2022-09-03T12:06:30;99800.91;;;22.98;52.29
8229;BME280;4155;50.118;8.714;2022-09-03T12:09:17;99792.16;;;22.41;54.47
8229;BME280;4155;50.118;8.714;2022-09-03T12:11:55;99788.03;;;21.59;55.35
8229;BME280;4155;50.118;8.714;2022-09-03T12:14:33;99794.75;;;22.12;54.57
8229;BME280;4155;50.118;8.714;2022-09-03T12:17:13;99792.25;;;22.26;54.67
8229;BME280;4155;50.118;8.714;2022-09-03T12:19:48;99791.22;;;21.91;55.54
8229;BME280;4155;50.118;8.714;2022-09-03T12:22:19;99784.19;;;21.65;55.72
8229;BME280;4155;50.118;8.714;2022-09-03T12:24:47;99783.19;;;22.36;54.29
8229;BME280;4155;50.118;8.714;2022-09-03T12:27:19;99785.53;;;22.58;53.42
8229;BME280;4155;50.118;8.714;2022-09-03T12:29:52;99794.94;;;22.86;51.99
8229;BME280;4155;50.118;8.714;2022-09-03T12:32:23;99791.09;;;23.31;51.39
8229;BME280;4155;50.118;8.714;2022-09-03T12:34:52;99780.31;;;22.66;53.66
8229;BME280;4155;50.118;8.714;2022-09-03T12:37:21;99790.88;;;22.88;53.29
8229;BME280;4155;50.118;8.714;2022-09-03T12:40:18;99785.94;;;22.85;52.23
8229;BME280;4155;50.118;8.714;2022-09-03T12:42:49;99779.78;;;23.43;51.27
8229;BME280;4155;50.118;8.714;2022-09-03T12:45:20;99777.94;;;23.91;50.09
8229;BME280;4155;50.118;8.714;2022-09-03T12:47:48;99772.28;;;22.75;52.07
8229;BME280;4155;50.118;8.714;2022-09-03T12:50:19;99773.38;;;22.84;52.26
8229;BME280;4155;50.118;8.714;2022-09-03T12:52:50;99769.91;;;22.63;53.36
8229;BME280;4155;50.118;8.714;2022-09-03T12:55:26;99778.25;;;23.26;52.18
8229;BME280;4155;50.118;8.714;2022-09-03T12:58:01;99776.50;;;23.41;51.71
8229;BME280;4155;50.118;8.714;2022-09-03T13:00:32;99773.03;;;23.88;50.12
8229;BME280;4155;50.118;8.714;2022-09-03T13:03:03;99771.63;;;23.66;51.09
8229;BME280;4155;50.118;8.714;2022-09-03T13:05:34;99769.97;;;23.36;51.71
8229;BME280;4155;50.118;8.714;2022-09-03T13:08:05;99769.66;;;23.38;51.81
8229;BME280;4155;50.118;8.714;2022-09-03T13:10:37;99770.69;;;23.47;52.87
8229;BME280;4155;50.118;8.714;2022-09-03T13:13:20;99770.13;;;23.79;51.12
8229;BME280;4155;50.118;8.714;2022-09-03T13:19:08;99783.25;;;23.82;52.09
8229;BME280;4155;50.118;8.714;2022-09-03T13:21:47;99779.44;;;24.02;50.96
8229;BME280;4155;50.118;8.714;2022-09-03T13:24:26;99776.16;;;24.05;50.85
8229;BME280;4155;50.118;8.714;2022-09-03T13:27:12;99773.28;;;23.33;52.17
8229;BME280;4155;50.118;8.714;2022-09-03T13:29:56;99773.88;;;22.91;53.35
8229;BME280;4155;50.118;8.714;2022-09-03T13:32:34;99773.34;;;22.89;53.79
8229;BME280;4155;50.118;8.714;2022-09-03T13:35:08;99768.72;;;22.79;53.97
8229;BME280;4155;50.118;8.714;2022-09-03T13:37:39;99768.66;;;22.95;53.80
8229;BME280;4155;50.118;8.714;2022-09-03T13:40:15;99775.22;;;22.94;53.63
8229;BME280;4155;50.118;8.714;2022-09-03T13:42:49;99775.94;;;23.09;53.35
8229;BME280;4155;50.118;8.714;2022-09-03T13:45:28;99773.88;;;22.91;53.73
8229;BME280;4155;50.118;8.714;2022-09-03T13:48:03;99777.94;;;22.94;53.54
8229;BME280;4155;50.118;8.714;2022-09-03T13:50:53;99776.16;;;23.18;53.04
8229;BME280;4155;50.118;8.714;2022-09-03T13:53:35;99778.41;;;23.06;53.52
8229;BME280;4155;50.118;8.714;2022-09-03T13:56:17;99781.72;;;23.37;53.77
8229;BME280;4155;50.118;8.714;2022-09-03T13:58:49;99781.50;;;23.91;52.41
8229;BME280;4155;50.118;8.714;2022-09-03T14:01:24;99785.28;;;24.43;50.88